Apolo, Bolivia
Current Conditions -  °F | °C
As of 10:00 PM on Saturday 20 Dec 2014 (Local Time) from SPJL Reporting Station
Scattered Clouds Scattered Clouds  
Wind Chill: 50°   Ceiling: Unl
Heat Index: 50°   Visibility: 6mi
Dew Point: 34°   Wind: 6mph
Humidity: 54%   Direction: 200°SSW
Pressure: 30.53"   Gusts: NA
Location:  14.72°S, 68.51°W
Report Text: SPJL 210200Z 20005KT 9999 SCT020 10/01 Q1034 RMK PP000
Loading
Personal Weather Stations






























Interactive Weather Map New forecast layout! Learn more

10-Day Weather Forecast

Advertisements
Track Severe Weather on mobile